ADDS METAR Data INFO
IDs: Format: Raw Decoded Include TAF

Data at: 1203 UTC 21 Jun 2018

KFOZ 211153Z AUTO 00000KT 10SM CLR 15/13 A2997 RMK AO2
KFOZ 211133Z AUTO 00000KT 10SM CLR 14/13 A2996 RMK AO2
KFOZ 211113Z AUTO 00000KT 10SM CLR 13/12 A2996 RMK AO2
KFOZ 211053Z AUTO 00000KT 10SM CLR 12/11 A2995 RMK AO2
KFOZ 211033Z AUTO 00000KT 10SM CLR 12/11 A2995 RMK AO2
KFOZ 211013Z AUTO 00000KT 10SM CLR 12/11 A2995 RMK AO2
KFOZ 210953Z AUTO 00000KT 10SM CLR 12/11 A2995 RMK AO2
KFOZ 210933Z AUTO 00000KT 10SM CLR 12/11 A2994 RMK AO2
KFOZ 210913Z AUTO 00000KT 10SM CLR 12/11 A2994 RMK AO2 TSNO
KFOZ 210853Z AUTO 00000KT 10SM CLR 13/11 A2994 RMK AO2
KFOZ 210833Z AUTO 00000KT 10SM CLR 14/12 A2994 RMK AO2
KFOZ 210813Z AUTO 00000KT 10SM CLR 14/12 A2994 RMK AO2
KFOZ 210753Z AUTO 00000KT 10SM CLR 15/12 A2994 RMK AO2
KFOZ 210733Z AUTO 14003KT 10SM CLR 15/13 A2994 RMK AO2
KFOZ 210713Z AUTO 00000KT 10SM CLR 16/13 A2994 RMK AO2
KFOZ 210653Z AUTO 00000KT 10SM CLR 15/14 A2993 RMK AO2 TSNO
KFOZ 210633Z AUTO 00000KT 10SM CLR 15/14 A2993 RMK AO2
KFOZ 210613Z AUTO 00000KT 10SM CLR 14/14 A2993 RMK AO2
KFOZ 210553Z AUTO 00000KT 10SM CLR 14/13 A2992 RMK AO2
KFOZ 210533Z AUTO 00000KT 10SM CLR 15/14 A2992 RMK AO2
KFOZ 210513Z AUTO 00000KT 10SM CLR 15/14 A2992 RMK AO2
KFOZ 210453Z AUTO 00000KT 10SM CLR 15/14 A2992 RMK AO2
KFOZ 210433Z AUTO 00000KT 10SM CLR 16/14 A2992 RMK AO2
KFOZ 210413Z AUTO 00000KT 10SM CLR 16/15 A2992 RMK AO2
KFOZ 210353Z AUTO 00000KT 10SM CLR 16/15 A2992 RMK AO2
KFOZ 210333Z AUTO 00000KT 10SM CLR 17/16 A2992 RMK AO2
KFOZ 210313Z AUTO 00000KT 10SM CLR 17/16 A2991 RMK AO2
KFOZ 210253Z AUTO 00000KT 10SM CLR 18/17 A2991 RMK AO2
KFOZ 210233Z AUTO 00000KT 10SM CLR 18/17 A2991 RMK AO2
KFOZ 210213Z AUTO 00000KT 10SM CLR 19/17 A2991 RMK AO2
KFOZ 210153Z AUTO 00000KT 10SM CLR 21/17 A2991 RMK AO2
KFOZ 210133Z AUTO 00000KT 10SM CLR 22/16 A2991 RMK AO2
KFOZ 210113Z AUTO 00000KT 10SM CLR 23/14 A2991 RMK AO2
KFOZ 210053Z AUTO 00000KT 10SM CLR 24/14 A2990 RMK AO2
KFOZ 210033Z AUTO 00000KT 10SM CLR 25/16 A2990 RMK AO2
KFOZ 210013Z AUTO 00000KT 10SM CLR 26/16 A2990 RMK AO2
KFOZ 202353Z AUTO 00000KT 10SM CLR 27/11 A2990 RMK AO2
KFOZ 202333Z AUTO 00000KT 10SM CLR 28/11 A2990 RMK AO2
KFOZ 202313Z AUTO 00000KT 10SM CLR 28/09 A2990 RMK AO2
KFOZ 202253Z AUTO 05003KT 10SM CLR 28/09 A2990 RMK AO2 TSNO
KFOZ 202233Z AUTO 05003KT 10SM CLR 28/09 A2990 RMK AO2
KFOZ 202213Z AUTO 07004KT 10SM CLR 29/09 A2991 RMK AO2
KFOZ 202153Z AUTO 04006KT 10SM CLR 29/10 A2991 RMK AO2
KFOZ 202133Z AUTO 03004KT 10SM CLR 28/09 A2991 RMK AO2
KFOZ 202113Z AUTO 08006KT 10SM CLR 29/10 A2991 RMK AO2
KFOZ 202053Z AUTO 07004KT 10SM CLR 29/12 A2992 RMK AO2
KFOZ 202033Z AUTO 09003KT 10SM CLR 29/11 A2992 RMK AO2
KFOZ 202013Z AUTO 09004KT 10SM CLR 29/11 A2992 RMK AO2
KFOZ 201953Z AUTO 10003KT 10SM CLR 29/10 A2992 RMK AO2
KFOZ 201933Z AUTO 05006KT 10SM CLR 29/11 A2993 RMK AO2
KFOZ 201913Z AUTO 05003KT 10SM CLR 28/10 A2993 RMK AO2
KFOZ 201853Z AUTO 00000KT 10SM CLR 28/11 A2993 RMK AO2
KFOZ 201833Z AUTO 06004KT 10SM CLR 28/12 A2993 RMK AO2
KFOZ 201813Z AUTO 00000KT 10SM CLR 28/11 A2994 RMK AO2
KFOZ 201753Z AUTO 36004KT 10SM CLR 27/11 A2994 RMK AO2
KFOZ 201733Z AUTO 05003KT 10SM CLR 27/12 A2994 RMK AO2
KFOZ 201713Z AUTO 31004KT 10SM CLR 27/11 A2994 RMK AO2
KFOZ 201653Z AUTO 02003KT 10SM CLR 27/12 A2995 RMK AO2 TSNO
KFOZ 201633Z AUTO 35003KT 10SM CLR 26/12 A2995 RMK AO2 TSNO
KFOZ 201613Z AUTO 00000KT 10SM CLR 26/13 A2995 RMK AO2 TSNO
KFOZ 201553Z AUTO 01003KT 10SM CLR 25/12 A2996 RMK AO2
KFOZ 201533Z AUTO 36003KT 10SM CLR 25/13 A2997 RMK AO2
KFOZ 201513Z AUTO 00000KT 10SM CLR 24/13 A2998 RMK AO2
KFOZ 201453Z AUTO 00000KT 10SM CLR 23/13 A2998 RMK AO2
KFOZ 201433Z AUTO 35003KT 10SM CLR 23/12 A2999 RMK AO2 TSNO
KFOZ 201413Z AUTO 35003KT 10SM CLR 23/13 A2998 RMK AO2
KFOZ 201353Z AUTO 00000KT 10SM CLR 22/14 A2998 RMK AO2
KFOZ 201333Z AUTO 00000KT 10SM SCT100 20/15 A2998 RMK AO2
KFOZ 201313Z AUTO 00000KT 10SM CLR 19/16 A2998 RMK AO2
KFOZ 201253Z AUTO 00000KT 10SM CLR 17/15 A2998 RMK AO2
KFOZ 201233Z AUTO 00000KT 10SM CLR 15/14 A2998 RMK AO2
KFOZ 201213Z AUTO 00000KT 10SM CLR 14/14 A2999 RMK AO2
KFOZ 201153Z AUTO 00000KT 10SM CLR 13/12 A2999 RMK AO2
KFOZ 201133Z AUTO 00000KT 10SM CLR 11/11 A2999 RMK AO2
KFOZ 201113Z AUTO 00000KT 7SM SCT110 11/10 A2999 RMK AO2
KFOZ 201053Z AUTO 00000KT 1 1/4SM BR VV007 10/09 A2999 RMK AO2 VIS 1/2V5
KFOZ 201033Z AUTO 00000KT 7SM CLR 11/10 A2999 RMK AO2
KFOZ 201013Z AUTO 00000KT 7SM CLR 11/10 A2999 RMK AO2
KFOZ 200953Z AUTO 00000KT 4SM BR CLR 11/10 A2999 RMK AO2
KFOZ 200933Z AUTO 00000KT 7SM CLR 11/10 A2999 RMK AO2
KFOZ 200913Z AUTO 00000KT 4SM BR CLR 11/11 A2999 RMK AO2
KFOZ 200853Z AUTO 00000KT 7SM CLR 12/11 A2998 RMK AO2
KFOZ 200833Z AUTO 00000KT 3/4SM BR VV005 12/11 A2998 RMK AO2
KFOZ 200813Z AUTO 00000KT 7SM CLR 12/12 A2998 RMK AO2
KFOZ 200753Z AUTO 00000KT 7SM SCT001 13/12 A2999 RMK AO2
KFOZ 200733Z AUTO 00000KT 1/2SM FG BKN001 13/12 A2999 RMK AO2
KFOZ 200713Z AUTO 00000KT 1 1/2SM BR BKN001 13/13 A3000 RMK AO2 VIS 3/4V2 1/2
KFOZ 200653Z AUTO 00000KT 1 1/2SM BR VV007 14/13 A3000 RMK AO2 VIS 1/2V4
KFOZ 200633Z AUTO 00000KT 10SM CLR 15/14 A3000 RMK AO2
KFOZ 200613Z AUTO 00000KT 4SM BR CLR 14/14 A3000 RMK AO2 TSNO
KFOZ 200553Z AUTO 00000KT 10SM CLR 16/14 A3001 RMK AO2
KFOZ 200533Z AUTO 00000KT 10SM CLR 16/15 A3001 RMK AO2
KFOZ 200513Z AUTO 00000KT 10SM CLR 16/15 A3002 RMK AO2
KFOZ 200453Z AUTO 00000KT 10SM CLR 16/15 A3001 RMK AO2
KFOZ 200433Z AUTO 00000KT 7SM CLR 16/14 A3000 RMK AO2
KFOZ 200413Z AUTO 00000KT 10SM CLR 16/14 A2999 RMK AO2 TSNO
KFOZ 200353Z AUTO 00000KT 10SM CLR 16/15 A2999 RMK AO2
KFOZ 200333Z AUTO 00000KT 10SM CLR 17/16 A2999 RMK AO2
KFOZ 200313Z AUTO 00000KT 10SM CLR 17/16 A3000 RMK AO2
KFOZ 200253Z AUTO 00000KT 10SM CLR 17/16 A3000 RMK AO2 TSNO
KFOZ 200233Z AUTO 00000KT 10SM CLR 18/16 A2999 RMK AO2
KFOZ 200213Z AUTO 00000KT 10SM CLR 18/15 A2999 RMK AO2
KFOZ 200153Z AUTO 00000KT 10SM CLR 19/15 A2999 RMK AO2
KFOZ 200133Z AUTO 00000KT 10SM CLR 21/16 A2999 RMK AO2
KFOZ 200113Z AUTO 00000KT 10SM CLR 21/16 A2999 RMK AO2
KFOZ 200053Z AUTO 00000KT 10SM CLR 22/15 A3000 RMK AO2 TSNO
KFOZ 200033Z AUTO 00000KT 10SM CLR 22/16 A3000 RMK AO2 TSNO
KFOZ 200013Z AUTO 00000KT 10SM CLR 23/16 A3001 RMK AO2